Terminal Aerodrome Forecast
Issued by NWS La Crosse, WI

Home | Current Version | Previous Version | Text Only | Print | Product List | Glossary On
Versions: 1 2 3 4 5 6 7 8 9 10 11 12 13 14 15 16 17 18 19 20 21 22 23 24 25 26 27 28 29 30 31 32 33 34
000
FTUS43 KARX 251244 AAA
TAFLSE
TAF AMD
KLSE 251244Z 2513/2612 21007KT P6SM VCSH BKN015 OVC030
      TEMPO 2513/2515 3SM -RA OVC010
     FM251500 23012KT P6SM VCSH BKN015
     FM251700 22015G23KT P6SM BKN025
     FM260000 19012KT P6SM VCSH BKN035
     FM260600 19006KT 4SM BR OVC015=

USA.gov is the U.S. government's official web portal to all federal, state and local government web resources and services.